createdAt,value
2022-12-29T00:02:51.987Z,99675.91
2022-12-29T00:06:55.653Z,99661.75
2022-12-29T00:10:58.673Z,99662.56
2022-12-29T00:15:19.514Z,99660.16
2022-12-29T00:19:41.970Z,99647.09
2022-12-29T00:24:02.243Z,99650.09
2022-12-29T00:28:29.233Z,99650.63
2022-12-29T00:32:50.267Z,99646.81
2022-12-29T00:36:54.496Z,99643.81
2022-12-29T00:41:14.948Z,99642.22
2022-12-29T00:45:17.803Z,99629.41
2022-12-29T00:49:33.803Z,99629.69
2022-12-29T00:53:38.756Z,99615.28
2022-12-29T00:57:41.608Z,99605.22
2022-12-29T01:01:45.278Z,99617.44
2022-12-29T01:05:48.259Z,99596.50
2022-12-29T01:10:10.645Z,99580.75
2022-12-29T01:14:14.637Z,99589.44
2022-12-29T01:18:17.540Z,99582.63
2022-12-29T01:22:21.344Z,99595.13
2022-12-29T01:26:26.464Z,99582.34
2022-12-29T01:30:29.538Z,99598.94
2022-12-29T01:34:32.393Z,99585.63
2022-12-29T01:38:36.824Z,99576.91
2022-12-29T01:42:41.087Z,99566.56
2022-12-29T01:46:50.280Z,99566.56
2022-12-29T01:50:55.165Z,99558.41
2022-12-29T01:54:59.930Z,99569.03
2022-12-29T01:59:11.319Z,99565.22
2022-12-29T02:03:14.871Z,99567.94
2022-12-29T02:07:20.615Z,99571.72
2022-12-29T02:11:26.328Z,99573.09
2022-12-29T02:15:43.221Z,99558.69
2022-12-29T02:20:19.556Z,99567.91
2022-12-29T02:25:14.181Z,99547.81
2022-12-29T02:29:44.301Z,99538.84
2022-12-29T02:34:02.749Z,99539.38
2022-12-29T02:38:19.501Z,99528.50
2022-12-29T02:42:31.252Z,99539.09
2022-12-29T02:46:39.785Z,99529.56
2022-12-29T02:50:50.875Z,99525.53
2022-12-29T02:54:55.898Z,99524.97
2022-12-29T02:58:58.899Z,99510.56
2022-12-29T03:03:22.540Z,99534.22
2022-12-29T03:07:36.873Z,99520.06
2022-12-29T03:12:04.498Z,99524.13
2022-12-29T03:16:16.238Z,99515.44
2022-12-29T03:20:27.539Z,99498.59
2022-12-29T03:24:36.372Z,99492.06
2022-12-29T03:28:42.863Z,99486.06
2022-12-29T03:32:51.003Z,99502.09
2022-12-29T03:36:59.673Z,99475.19
2022-12-29T03:41:11.759Z,99465.34
2022-12-29T03:45:15.746Z,99489.84
2022-12-29T03:49:19.613Z,99480.59
2022-12-29T03:53:22.904Z,99482.47
2022-12-29T03:57:27.667Z,99491.72
2022-12-29T04:01:36.441Z,99485.16
2022-12-29T04:05:39.547Z,99485.69
2022-12-29T04:09:42.859Z,99488.97
2022-12-29T04:13:51.559Z,99499.56
2022-12-29T04:17:58.339Z,99492.78
2022-12-29T04:22:01.395Z,99476.75
2022-12-29T04:26:07.323Z,99470.72
2022-12-29T04:30:16.413Z,99470.47
2022-12-29T04:34:56.438Z,99472.13
2022-12-29T04:38:59.575Z,99478.09
2022-12-29T04:43:03.672Z,99474.56
2022-12-29T04:47:10.797Z,99475.41
2022-12-29T04:51:40.060Z,99478.13
2022-12-29T04:55:46.894Z,99467.78
2022-12-29T04:59:49.760Z,99473.53
2022-12-29T05:03:54.155Z,99486.59
2022-12-29T05:07:57.290Z,99507.81
2022-12-29T05:12:00.571Z,99511.09
2022-12-29T05:16:03.618Z,99498.84
2022-12-29T05:20:09.848Z,99491.25
2022-12-29T05:24:13.624Z,99517.34
2022-12-29T05:28:18.111Z,99514.38
2022-12-29T05:32:33.971Z,99486.34
2022-12-29T05:36:38.958Z,99508.91
2022-12-29T05:40:45.189Z,99515.94
2022-12-29T05:44:59.913Z,99514.06
2022-12-29T05:49:41.349Z,99504.25
2022-12-29T05:53:47.842Z,99524.38
2022-12-29T05:57:51.823Z,99536.56
2022-12-29T06:01:55.977Z,99551.50
2022-12-29T06:05:59.092Z,99582.72
2022-12-29T06:10:05.384Z,99557.94
2022-12-29T06:14:12.735Z,99583.69
2022-12-29T06:18:19.914Z,99571.13
2022-12-29T06:22:23.706Z,99596.31
2022-12-29T06:26:28.614Z,99601.16
2022-12-29T06:30:33.849Z,99595.19
2022-12-29T06:34:38.490Z,99593.56
2022-12-29T06:38:41.519Z,99613.09
2022-12-29T06:42:46.419Z,99610.13
2022-12-29T06:47:08.714Z,99604.09
2022-12-29T06:51:11.737Z,99619.03
2022-12-29T06:55:14.660Z,99632.06
2022-12-29T06:59:19.492Z,99623.63
2022-12-29T07:03:22.571Z,99626.09
2022-12-29T07:07:25.850Z,99630.41
2022-12-29T07:11:28.768Z,99638.56
2022-12-29T07:15:33.168Z,99636.63
2022-12-29T07:19:36.015Z,99634.97
2022-12-29T07:23:39.693Z,99631.69
2022-12-29T07:27:42.632Z,99632.28
2022-12-29T07:31:47.176Z,99633.09
2022-12-29T07:35:50.076Z,99630.66
2022-12-29T07:39:53.205Z,99629.34
2022-12-29T07:43:56.179Z,99638.06
2022-12-29T07:48:29.999Z,99644.09
2022-12-29T07:52:33.827Z,99641.91
2022-12-29T07:56:37.176Z,99644.13
2022-12-29T08:00:40.122Z,99658.25
2022-12-29T08:04:44.518Z,99643.41
2022-12-29T08:08:47.876Z,99648.56
2022-12-29T08:12:51.158Z,99648.28
2022-12-29T08:16:54.216Z,99657.53
2022-12-29T08:21:03.575Z,99670.31
2022-12-29T08:25:07.067Z,99673.59
2022-12-29T08:29:10.013Z,99663.53
2022-12-29T08:33:13.581Z,99654.88
2022-12-29T08:37:17.976Z,99671.19
2022-12-29T08:41:20.866Z,99664.44
2022-12-29T08:45:23.817Z,99663.06
2022-12-29T08:49:27.106Z,99664.22
2022-12-29T08:53:31.482Z,99666.94
2022-12-29T08:57:34.639Z,99681.66
2022-12-29T09:01:46.940Z,99694.41
2022-12-29T09:05:51.113Z,99702.28
2022-12-29T09:09:56.377Z,99691.16
2022-12-29T09:13:59.344Z,99696.34
2022-12-29T09:18:02.233Z,99692.00
2022-12-29T09:22:05.279Z,99681.13
2022-12-29T09:26:10.068Z,99694.16
2022-12-29T09:30:15.482Z,99697.44
2022-12-29T09:34:18.490Z,99679.22
2022-12-29T09:38:21.633Z,99683.66
2022-12-29T09:42:33.365Z,99693.69
2022-12-29T09:46:40.122Z,99696.97
2022-12-29T09:50:48.932Z,99696.16
2022-12-29T09:55:03.171Z,99714.09
2022-12-29T09:59:16.852Z,99704.34
2022-12-29T10:03:21.941Z,99722.84
2022-12-29T10:07:34.986Z,99698.09
2022-12-29T10:11:58.440Z,99717.03
2022-12-29T10:16:13.957Z,99714.28
2022-12-29T10:20:31.382Z,99710.19
2022-12-29T10:24:39.850Z,99706.13
2022-12-29T10:28:46.872Z,99722.19
2022-12-29T10:32:57.789Z,99697.19
2022-12-29T10:37:04.916Z,99727.94
2022-12-29T10:41:15.327Z,99724.44
2022-12-29T10:45:20.574Z,99732.88
2022-12-29T10:49:28.887Z,99727.19
2022-12-29T10:53:56.700Z,99744.06
2022-12-29T10:58:20.325Z,99755.78
2022-12-29T11:02:52.791Z,99755.19
2022-12-29T11:07:27.322Z,99754.09
2022-12-29T11:11:53.329Z,99741.84
2022-12-29T11:16:40.032Z,99746.72
2022-12-29T11:21:27.087Z,99767.13
2022-12-29T11:26:10.016Z,99785.28
2022-12-29T11:30:35.543Z,99796.94
2022-12-29T11:35:07.771Z,99792.00
2022-12-29T11:39:31.077Z,99812.59
2022-12-29T11:43:40.117Z,99813.66
2022-12-29T11:47:46.067Z,99819.66
2022-12-29T11:51:51.186Z,99811.78
2022-12-29T11:55:57.387Z,99813.09
2022-12-29T12:00:03.542Z,99833.19
2022-12-29T12:04:30.849Z,99833.19
2022-12-29T12:08:45.971Z,99835.66
2022-12-29T12:12:54.605Z,99839.19
2022-12-29T12:17:04.231Z,99835.66
2022-12-29T12:21:14.973Z,99845.75
2022-12-29T12:25:22.334Z,99852.81
2022-12-29T12:29:33.312Z,99853.91
2022-12-29T12:33:43.425Z,99860.69
2022-12-29T12:38:05.741Z,99876.13
2022-12-29T12:42:40.952Z,99872.22
2022-12-29T12:47:24.638Z,99870.59
2022-12-29T12:51:36.563Z,99881.28
2022-12-29T12:55:56.843Z,99876.94
2022-12-29T13:00:05.681Z,99886.44
2022-12-29T13:04:35.298Z,99889.69
2022-12-29T13:08:57.988Z,99896.75
2022-12-29T13:13:19.458Z,99898.41
2022-12-29T13:17:32.341Z,99908.94
2022-12-29T13:22:00.199Z,99905.72
2022-12-29T13:26:18.758Z,99910.34
2022-12-29T13:30:36.033Z,99908.72
2022-12-29T13:34:50.444Z,99920.69
2022-12-29T13:39:03.559Z,99921.00
2022-12-29T13:43:09.067Z,99935.97
2022-12-29T13:47:22.689Z,99938.41
2022-12-29T13:51:28.482Z,99954.72
2022-12-29T13:55:36.999Z,99952.31
2022-12-29T13:59:50.841Z,99948.22
2022-12-29T14:03:55.704Z,99956.66
2022-12-29T14:08:04.852Z,99959.91
2022-12-29T14:12:30.248Z,99958.28
2022-12-29T14:16:38.711Z,99957.19
2022-12-29T14:20:58.060Z,99970.25
2022-12-29T14:25:01.789Z,99972.16
2022-12-29T14:29:41.519Z,99988.16
2022-12-29T14:34:33.429Z,99975.63
2022-12-29T14:38:46.928Z,99983.56
2022-12-29T14:42:52.509Z,99987.31
2022-12-29T14:47:03.534Z,99989.75
2022-12-29T14:51:31.002Z,99997.38
2022-12-29T14:55:43.399Z,99985.13
2022-12-29T14:59:48.017Z,99987.28
2022-12-29T15:03:52.460Z,99991.66
2022-12-29T15:08:04.421Z,99991.91
2022-12-29T15:12:25.774Z,100003.59
2022-12-29T15:16:38.001Z,100010.88
2022-12-29T15:20:41.312Z,100012.19
2022-12-29T15:24:46.779Z,100020.25
2022-12-29T15:28:51.269Z,100023.31
2022-12-29T15:32:54.376Z,100036.59
2022-12-29T15:36:58.011Z,100043.25
2022-12-29T15:41:07.276Z,100040.22
2022-12-29T15:45:14.482Z,100047.47
2022-12-29T15:49:18.358Z,100057.44
2022-12-29T15:53:29.046Z,100054.34
2022-12-29T15:57:43.963Z,100048.53
2022-12-29T16:01:56.051Z,100053.53
2022-12-29T16:06:10.030Z,100060.56
2022-12-29T16:10:30.135Z,100068.09
2022-12-29T16:14:36.660Z,100060.47
2022-12-29T16:18:40.534Z,100062.28
2022-12-29T16:22:48.740Z,100036.56
2022-12-29T16:26:56.040Z,100061.38
2022-12-29T16:31:06.900Z,100063.28
2022-12-29T16:35:14.465Z,100061.88
2022-12-29T16:39:32.804Z,100071.41
2022-12-29T16:43:42.947Z,100065.69
2022-12-29T16:47:51.513Z,100063.44
2022-12-29T16:51:57.870Z,100063.44
2022-12-29T16:56:06.778Z,100070.75
2022-12-29T17:00:21.245Z,100074.88
2022-12-29T17:04:26.233Z,100078.41
2022-12-29T17:08:29.217Z,100071.91
2022-12-29T17:12:34.301Z,100075.75
2022-12-29T17:16:37.293Z,100075.53
2022-12-29T17:20:42.097Z,100073.06
2022-12-29T17:24:45.189Z,100088.84
2022-12-29T17:28:48.730Z,100091.31
2022-12-29T17:32:54.085Z,100102.66
2022-12-29T17:36:58.604Z,100101.25
2022-12-29T17:41:02.307Z,100120.84
2022-12-29T17:45:07.715Z,100117.78
2022-12-29T17:49:13.755Z,100129.44
2022-12-29T17:53:23.690Z,100127.81
2022-12-29T17:57:26.909Z,100134.06
2022-12-29T18:01:36.204Z,100142.19
2022-12-29T18:05:53.238Z,100146.69
2022-12-29T18:09:57.889Z,100152.88
2022-12-29T18:14:01.330Z,100143.91
2022-12-29T18:18:12.347Z,100164.44
2022-12-29T18:22:15.209Z,100169.78
2022-12-29T18:26:28.143Z,100163.44
2022-12-29T18:30:32.514Z,100177.75
2022-12-29T18:34:35.637Z,100194.97
2022-12-29T18:38:39.259Z,100192.72
2022-12-29T18:42:43.630Z,100186.47
2022-12-29T18:46:47.009Z,100199.59
2022-12-29T18:50:51.810Z,100193.63
2022-12-29T18:54:55.045Z,100198.94
2022-12-29T18:58:59.578Z,100201.22
2022-12-29T19:03:02.535Z,100199.34
2022-12-29T19:07:05.432Z,100196.97
2022-12-29T19:11:09.022Z,100201.69
2022-12-29T19:15:22.608Z,100210.78
2022-12-29T19:19:25.512Z,100217.81
2022-12-29T19:23:28.605Z,100217.59
2022-12-29T19:27:33.441Z,100222.19
2022-12-29T19:31:38.837Z,100231.94
2022-12-29T19:35:42.491Z,100244.22
2022-12-29T19:39:47.556Z,100237.72
2022-12-29T19:43:51.323Z,100241.94
2022-12-29T19:47:56.018Z,100258.81
2022-12-29T19:51:59.896Z,100260.22
2022-12-29T19:56:04.860Z,100260.44
2022-12-29T20:00:09.564Z,100255.28
2022-12-29T20:04:17.683Z,100256.69
2022-12-29T20:08:21.889Z,100266.44
2022-12-29T20:12:29.089Z,100265.88
2022-12-29T20:16:33.172Z,100275.41
2022-12-29T20:20:38.906Z,100273.41
2022-12-29T20:24:48.212Z,100286.09
2022-12-29T20:28:53.209Z,100279.78
2022-12-29T20:32:56.326Z,100298.34
2022-12-29T20:37:00.509Z,100298.84
2022-12-29T20:41:03.599Z,100297.41
2022-12-29T20:45:07.309Z,100304.94
2022-12-29T20:49:11.914Z,100314.72
2022-12-29T20:53:16.327Z,100313.06
2022-12-29T20:57:19.566Z,100312.47
2022-12-29T21:01:25.565Z,100319.78
2022-12-29T21:05:41.441Z,100320.59
2022-12-29T21:09:45.809Z,100322.00
2022-12-29T21:13:49.432Z,100322.59
2022-12-29T21:17:52.602Z,100323.41
2022-12-29T21:21:55.594Z,100332.84
2022-12-29T21:26:00.526Z,100335.69
2022-12-29T21:30:03.433Z,100335.09
2022-12-29T21:34:07.368Z,100347.56
2022-12-29T21:38:10.862Z,100347.66
2022-12-29T21:42:16.240Z,100356.84
2022-12-29T21:46:19.115Z,100353.78
2022-12-29T21:50:22.079Z,100357.06
2022-12-29T21:54:45.302Z,100362.47
2022-12-29T21:59:08.638Z,100361.06
2022-12-29T22:03:29.616Z,100376.25
2022-12-29T22:07:49.768Z,100383.53
2022-12-29T22:12:10.194Z,100383.06
2022-12-29T22:16:18.232Z,100392.44
2022-12-29T22:20:24.584Z,100398.78
2022-12-29T22:24:29.227Z,100413.09
2022-12-29T22:28:33.490Z,100413.19
2022-12-29T22:32:39.178Z,100419.28
2022-12-29T22:36:42.042Z,100415.41
2022-12-29T22:40:44.929Z,100422.44
2022-12-29T22:44:47.929Z,100431.81
2022-12-29T22:48:53.264Z,100429.59
2022-12-29T22:53:13.122Z,100438.75
2022-12-29T22:57:33.198Z,100437.13
2022-12-29T23:01:57.236Z,100450.84
2022-12-29T23:06:20.392Z,100459.19
2022-12-29T23:10:23.655Z,100466.94
2022-12-29T23:14:26.921Z,100471.53
2022-12-29T23:18:35.828Z,100485.66
2022-12-29T23:22:45.060Z,100491.66
2022-12-29T23:26:59.433Z,100481.66
2022-12-29T23:31:07.918Z,100500.59
2022-12-29T23:35:17.266Z,100513.75
2022-12-29T23:39:24.407Z,100530.03
2022-12-29T23:43:47.250Z,100524.06
2022-12-29T23:48:15.868Z,100513.56
2022-12-29T23:52:25.525Z,100523.38
2022-12-29T23:56:31.634Z,100531.53
